PWSweather.com
Personal Weather Stations
Station Observations
KAZSIERR7
Canyon De Flores, Sierra Vista, AZ 85650

Canyon De FloresSierra Vista, AZ 85650

Lat: 31.5, Lon: -110.26

Elevation: 4645

Station Type: LaCrosse WS-3610 & Boltek Lightning Detector

http://www.lightningring.com/weather/

High Low Average
Temperature 81.0°F27.2°C 38.8°F3.8°C 61.1°F16.2°C
Dew Point 21.4°F-5.9°C 2.3°F-16.5°C 11.7°F-11.3°C
Winds 8.9 mph 14.3 kmh Calm Calm 1.0 mph SW1.6 kmh SW
Wind Gusts 71.0 mph114.3 kmh -- 9.0 mph14.5 kmh
Humidity 37% 5% 17%
Pressure 30.05 in1017.6 mb 29.90 in1012.5 mb -
Precipitation 0.00 in0.0 mm - -
Hour Temp Dew Point Humidity Winds Wind Gusts Pressure Precip Precip Rate Daily Precip Total
11:11 AM 73.3°F22.9°C 10.7°F-11.8°C 9% 5.5 mph SE8.9 kmh SE 41.0 mph66.0 kmh 29.96 in1014.6 mb 0.00 in0.0 mm 0.00 in/hr0.0 mm/hr 0.00 in0.0 mm
11:20 AM 43.5°F6.4°C 11.5°F-11.4°C 27% Calm Calm -- 30.03 in1016.9 mb 0.00 in0.0 mm 0.00 in/hr0.0 mm/hr 0.00 in0.0 mm
11:21 AM 42.6°F5.9°C 13.1°F-10.5°C 30% Calm Calm -- 30.03 in1016.9 mb 0.00 in0.0 mm 0.00 in/hr0.0 mm/hr 0.00 in0.0 mm
11:22 AM 64.9°F18.3°C 16.1°F-8.8°C 15% Calm Calm 4.0 mph6.4 kmh 30.04 in1017.3 mb 0.00 in0.0 mm 0.00 in/hr0.0 mm/hr 0.00 in0.0 mm
11:23 AM 73.8°F23.2°C 11.1°F-11.6°C 9% 3.0 mph NW4.8 kmh NW 60.8 mph97.8 kmh 29.96 in1014.6 mb 0.00 in0.0 mm 0.00 in/hr0.0 mm/hr 0.00 in0.0 mm
11:24 AM 50.1°F10.1°C 17.2°F-8.2°C 27% Calm Calm -- 29.97 in1014.9 mb 0.00 in0.0 mm 0.00 in/hr0.0 mm/hr 0.00 in0.0 mm
11:25 AM 73.8°F23.2°C 11.1°F-11.6°C 9% Calm Calm -- 29.98 in1015.2 mb 0.00 in0.0 mm 0.00 in/hr0.0 mm/hr 0.00 in0.0 mm
11:32 AM 72.7°F22.6°C 10.2°F-12.1°C 9% 8.0 mph SSE12.9 kmh SSE 38.4 mph61.8 kmh 29.96 in1014.6 mb 0.00 in0.0 mm 0.00 in/hr0.0 mm/hr 0.00 in0.0 mm
11:43 AM 74.6°F23.7°C 11.7°F-11.3°C 9% 1.8 mph S2.9 kmh S 64.4 mph103.6 kmh 29.96 in1014.6 mb 0.00 in0.0 mm 0.00 in/hr0.0 mm/hr 0.00 in0.0 mm
11:53 AM 74.9°F23.8°C 11.9°F-11.2°C 9% 2.3 mph WSW3.7 kmh WSW 19.6 mph31.5 kmh 29.96 in1014.6 mb 0.00 in0.0 mm 0.00 in/hr0.0 mm/hr 0.00 in0.0 mm
12:03 PM 75.4°F24.1°C 12.3°F-10.9°C 9% 5.3 mph WSW8.5 kmh WSW 44.6 mph71.8 kmh 29.95 in1014.2 mb 0.00 in0.0 mm 0.00 in/hr0.0 mm/hr 0.00 in0.0 mm
12:14 PM 74.5°F23.6°C 8.9°F-12.8°C 8% 7.3 mph S11.7 kmh S 49.2 mph79.2 kmh 29.95 in1014.2 mb 0.00 in0.0 mm 0.00 in/hr0.0 mm/hr 0.00 in0.0 mm
12:24 PM 75.3°F24.1°C 9.6°F-12.4°C 8% 5.9 mph SW9.5 kmh SW 55.8 mph89.8 kmh 29.95 in1014.2 mb 0.00 in0.0 mm 0.00 in/hr0.0 mm/hr 0.00 in0.0 mm
12:35 PM 74.4°F23.6°C 6.0°F-14.4°C 7% 5.8 mph S9.3 kmh S 55.8 mph89.8 kmh 29.95 in1014.2 mb 0.00 in0.0 mm 0.00 in/hr0.0 mm/hr 0.00 in0.0 mm
12:45 PM 73.8°F23.2°C 2.4°F-16.4°C 6% 7.2 mph E11.6 kmh E 54.0 mph86.9 kmh 29.94 in1013.9 mb 0.00 in0.0 mm 0.00 in/hr0.0 mm/hr 0.00 in0.0 mm
12:56 PM 74.7°F23.7°C 3.0°F-16.1°C 6% 6.6 mph S10.6 kmh S 49.2 mph79.2 kmh 29.93 in1013.5 mb 0.00 in0.0 mm 0.00 in/hr0.0 mm/hr 0.00 in0.0 mm
01:06 PM 73.7°F23.2°C 2.3°F-16.5°C 6% 8.0 mph SE12.9 kmh SE 66.2 mph106.5 kmh 29.93 in1013.5 mb 0.00 in0.0 mm 0.00 in/hr0.0 mm/hr 0.00 in0.0 mm
01:17 PM 75.5°F24.2°C 3.6°F-15.8°C 6% 5.1 mph SE8.2 kmh SE 42.0 mph67.6 kmh 29.93 in1013.5 mb 0.00 in0.0 mm 0.00 in/hr0.0 mm/hr 0.00 in0.0 mm
01:27 PM 78.0°F25.6°C 5.4°F-14.8°C 6% 5.2 mph SW8.4 kmh SW 9.8 mph15.8 kmh 29.92 in1013.2 mb 0.00 in0.0 mm 0.00 in/hr0.0 mm/hr 0.00 in0.0 mm
01:38 PM 79.2°F26.2°C 9.5°F-12.5°C 7% 2.1 mph WSW3.4 kmh WSW 9.8 mph15.8 kmh 29.92 in1013.2 mb 0.00 in0.0 mm 0.00 in/hr0.0 mm/hr 0.00 in0.0 mm
01:48 PM 80.2°F26.8°C 3.4°F-15.9°C 5% 2.3 mph W3.7 kmh W 3.0 mph4.8 kmh 29.92 in1013.2 mb 0.00 in0.0 mm 0.00 in/hr0.0 mm/hr 0.00 in0.0 mm
01:59 PM 79.7°F26.5°C 6.7°F-14.1°C 6% 5.3 mph W8.5 kmh W 7.0 mph11.3 kmh 29.91 in1012.9 mb 0.00 in0.0 mm 0.00 in/hr0.0 mm/hr 0.00 in0.0 mm
02:09 PM 79.3°F26.3°C 2.8°F-16.2°C 5% 1.2 mph SW1.9 kmh SW 58.0 mph93.3 kmh 29.91 in1012.9 mb 0.00 in0.0 mm 0.00 in/hr0.0 mm/hr 0.00 in0.0 mm
02:20 PM 80.9°F27.2°C 7.5°F-13.6°C 6% 3.0 mph SW4.8 kmh SW 9.8 mph15.8 kmh 29.91 in1012.9 mb 0.00 in0.0 mm 0.00 in/hr0.0 mm/hr 0.00 in0.0 mm
02:30 PM 79.2°F26.2°C 12.4°F-10.9°C 8% 3.0 mph SSW4.8 kmh SSW 49.2 mph79.2 kmh 29.91 in1012.9 mb 0.00 in0.0 mm 0.00 in/hr0.0 mm/hr 0.00 in0.0 mm
02:41 PM 79.6°F26.4°C 6.5°F-14.2°C 6% 3.7 mph NW6.0 kmh NW 54.4 mph87.5 kmh 29.91 in1012.9 mb 0.00 in0.0 mm 0.00 in/hr0.0 mm/hr 0.00 in0.0 mm
02:51 PM 81.0°F27.2°C 7.5°F-13.6°C 6% 4.8 mph SW7.7 kmh SW 6.6 mph10.6 kmh 29.91 in1012.9 mb 0.00 in0.0 mm 0.00 in/hr0.0 mm/hr 0.00 in0.0 mm
03:02 PM 80.2°F26.8°C 7.0°F-13.9°C 6% 3.5 mph SSW5.6 kmh SSW 6.2 mph10.0 kmh 29.91 in1012.9 mb 0.00 in0.0 mm 0.00 in/hr0.0 mm/hr 0.00 in0.0 mm
03:12 PM 79.4°F26.3°C 6.4°F-14.2°C 6% 3.9 mph SW6.3 kmh SW 58.0 mph93.3 kmh 29.92 in1013.2 mb 0.00 in0.0 mm 0.00 in/hr0.0 mm/hr 0.00 in0.0 mm
03:23 PM 80.2°F26.8°C 7.0°F-13.9°C 6% 3.5 mph WSW5.6 kmh WSW 5.8 mph9.3 kmh 29.91 in1012.9 mb 0.00 in0.0 mm 0.00 in/hr0.0 mm/hr 0.00 in0.0 mm
03:34 PM 78.9°F26.1°C 12.2°F-11.0°C 8% 1.0 mph WNW1.6 kmh WNW 8.0 mph12.9 kmh 29.91 in1012.9 mb 0.00 in0.0 mm 0.00 in/hr0.0 mm/hr 0.00 in0.0 mm
03:44 PM 77.7°F25.4°C 5.2°F-14.9°C 6% 3.1 mph SW5.0 kmh SW 47.8 mph76.9 kmh 29.91 in1012.9 mb 0.00 in0.0 mm 0.00 in/hr0.0 mm/hr 0.00 in0.0 mm
03:55 PM 79.4°F26.3°C 6.4°F-14.2°C 6% 1.2 mph WSW1.9 kmh WSW 5.8 mph9.3 kmh 29.90 in1012.5 mb 0.00 in0.0 mm 0.00 in/hr0.0 mm/hr 0.00 in0.0 mm
04:05 PM 77.6°F25.3°C 5.2°F-14.9°C 6% 7.2 mph SW11.6 kmh SW 53.6 mph86.3 kmh 29.91 in1012.9 mb 0.00 in0.0 mm 0.00 in/hr0.0 mm/hr 0.00 in0.0 mm
04:16 PM 77.8°F25.4°C 5.3°F-14.8°C 6% Calm Calm 63.4 mph102.0 kmh 29.91 in1012.9 mb 0.00 in0.0 mm 0.00 in/hr0.0 mm/hr 0.00 in0.0 mm
04:26 PM 77.7°F25.4°C 5.2°F-14.9°C 6% 4.9 mph WSW7.9 kmh WSW 52.2 mph84.0 kmh 29.91 in1012.9 mb 0.00 in0.0 mm 0.00 in/hr0.0 mm/hr 0.00 in0.0 mm
04:37 PM 76.6°F24.8°C 4.4°F-15.3°C 6% 6.1 mph SW9.8 kmh SW 35.2 mph56.6 kmh 29.91 in1012.9 mb 0.00 in0.0 mm 0.00 in/hr0.0 mm/hr 0.00 in0.0 mm
04:47 PM 76.7°F24.8°C 10.6°F-11.9°C 8% 5.5 mph WSW8.9 kmh WSW 8.0 mph12.9 kmh 29.91 in1012.9 mb 0.00 in0.0 mm 0.00 in/hr0.0 mm/hr 0.00 in0.0 mm
04:58 PM 76.0°F24.4°C 12.7°F-10.7°C 9% 5.1 mph WSW8.2 kmh WSW 55.8 mph89.8 kmh 29.91 in1012.9 mb 0.00 in0.0 mm 0.00 in/hr0.0 mm/hr 0.00 in0.0 mm
05:08 PM 75.2°F24.0°C 12.2°F-11.0°C 9% 6.5 mph WSW10.5 kmh WSW 30.8 mph49.6 kmh 29.92 in1013.2 mb 0.00 in0.0 mm 0.00 in/hr0.0 mm/hr 0.00 in0.0 mm
05:19 PM 74.7°F23.7°C 11.8°F-11.2°C 9% 6.4 mph W10.3 kmh W 51.4 mph82.7 kmh 29.92 in1013.2 mb 0.00 in0.0 mm 0.00 in/hr0.0 mm/hr 0.00 in0.0 mm
05:29 PM 74.2°F23.4°C 11.4°F-11.4°C 9% 5.2 mph WSW8.4 kmh WSW 52.6 mph84.7 kmh 29.92 in1013.2 mb 0.00 in0.0 mm 0.00 in/hr0.0 mm/hr 0.00 in0.0 mm
05:40 PM 73.4°F23.0°C 8.2°F-13.2°C 8% 5.2 mph W8.4 kmh W 8.4 mph13.5 kmh 29.92 in1013.2 mb 0.00 in0.0 mm 0.00 in/hr0.0 mm/hr 0.00 in0.0 mm
05:51 PM 73.0°F22.8°C 10.5°F-11.9°C 9% 2.8 mph WSW4.5 kmh WSW 6.2 mph10.0 kmh 29.93 in1013.5 mb 0.00 in0.0 mm 0.00 in/hr0.0 mm/hr 0.00 in0.0 mm
06:01 PM 72.0°F22.2°C 4.2°F-15.4°C 7% 5.1 mph WSW8.2 kmh WSW 7.6 mph12.2 kmh 29.93 in1013.5 mb 0.00 in0.0 mm 0.00 in/hr0.0 mm/hr 0.00 in0.0 mm
06:12 PM 71.3°F21.8°C 3.7°F-15.7°C 7% Calm Calm 7.6 mph12.2 kmh 29.93 in1013.5 mb 0.00 in0.0 mm 0.00 in/hr0.0 mm/hr 0.00 in0.0 mm
06:22 PM 69.0°F20.6°C 2.0°F-16.7°C 7% 2.9 mph W4.7 kmh W 45.6 mph73.4 kmh 29.93 in1013.5 mb 0.00 in0.0 mm 0.00 in/hr0.0 mm/hr 0.00 in0.0 mm
06:33 PM 67.4°F19.7°C 6.3°F-14.3°C 9% 2.6 mph W4.2 kmh W 3.4 mph5.5 kmh 29.93 in1013.5 mb 0.00 in0.0 mm 0.00 in/hr0.0 mm/hr 0.00 in0.0 mm
06:43 PM 66.7°F19.3°C 0.4°F-17.6°C 7% 3.3 mph WSW5.3 kmh WSW 4.8 mph7.7 kmh 29.93 in1013.5 mb 0.00 in0.0 mm 0.00 in/hr0.0 mm/hr 0.00 in0.0 mm
06:54 PM 65.9°F18.8°C -0.2°F-17.9°C 7% 1.6 mph W2.6 kmh W 8.4 mph13.5 kmh 29.93 in1013.5 mb 0.00 in0.0 mm 0.00 in/hr0.0 mm/hr 0.00 in0.0 mm
07:04 PM 65.6°F18.7°C 2.3°F-16.5°C 8% 3.6 mph W5.8 kmh W 8.4 mph13.5 kmh 29.93 in1013.5 mb 0.00 in0.0 mm 0.00 in/hr0.0 mm/hr 0.00 in0.0 mm
07:15 PM 65.2°F18.4°C 2.0°F-16.7°C 8% 5.3 mph WNW8.5 kmh WNW 7.0 mph11.3 kmh 29.94 in1013.9 mb 0.00 in0.0 mm 0.00 in/hr0.0 mm/hr 0.00 in0.0 mm
07:25 PM 65.1°F18.4°C 2.0°F-16.7°C 8% 3.9 mph W6.3 kmh W 7.0 mph11.3 kmh 29.95 in1014.2 mb 0.00 in0.0 mm 0.00 in/hr0.0 mm/hr 0.00 in0.0 mm
07:36 PM 64.5°F18.1°C 1.5°F-16.9°C 8% 2.6 mph W4.2 kmh W 6.6 mph10.6 kmh 29.95 in1014.2 mb 0.00 in0.0 mm 0.00 in/hr0.0 mm/hr 0.00 in0.0 mm
07:46 PM 63.6°F17.6°C 0.8°F-17.3°C 8% 3.3 mph WNW5.3 kmh WNW 4.4 mph7.1 kmh 29.95 in1014.2 mb 0.00 in0.0 mm 0.00 in/hr0.0 mm/hr 0.00 in0.0 mm
07:57 PM 63.6°F17.6°C 0.8°F-17.3°C 8% 3.9 mph WSW6.3 kmh WSW 5.2 mph8.4 kmh 29.96 in1014.6 mb 0.00 in0.0 mm 0.00 in/hr0.0 mm/hr 0.00 in0.0 mm
08:08 PM 63.3°F17.4°C 0.6°F-17.4°C 8% 1.4 mph W2.3 kmh W 4.8 mph7.7 kmh 29.96 in1014.6 mb 0.00 in0.0 mm 0.00 in/hr0.0 mm/hr 0.00 in0.0 mm
08:18 PM 62.7°F17.1°C 0.2°F-17.7°C 8% Calm Calm 2.6 mph4.2 kmh 29.96 in1014.6 mb 0.00 in0.0 mm 0.00 in/hr0.0 mm/hr 0.00 in0.0 mm
08:29 PM 61.5°F16.4°C 4.1°F-15.5°C 10% 0.9 mph W1.4 kmh W 1.2 mph1.9 kmh 29.97 in1014.9 mb 0.00 in0.0 mm 0.00 in/hr0.0 mm/hr 0.00 in0.0 mm
08:39 PM 61.8°F16.6°C 4.3°F-15.4°C 10% Calm Calm 3.4 mph5.5 kmh 29.97 in1014.9 mb 0.00 in0.0 mm 0.00 in/hr0.0 mm/hr 0.00 in0.0 mm
08:50 PM 61.5°F16.4°C 4.1°F-15.5°C 10% 2.6 mph WNW4.2 kmh WNW 3.4 mph5.5 kmh 29.97 in1014.9 mb 0.00 in0.0 mm 0.00 in/hr0.0 mm/hr 0.00 in0.0 mm
09:00 PM 61.3°F16.3°C 4.0°F-15.6°C 10% 1.7 mph WSW2.7 kmh WSW 4.4 mph7.1 kmh 29.97 in1014.9 mb 0.00 in0.0 mm 0.00 in/hr0.0 mm/hr 0.00 in0.0 mm
09:11 PM 60.7°F15.9°C 3.5°F-15.8°C 10% Calm Calm 2.2 mph3.5 kmh 29.98 in1015.2 mb 0.00 in0.0 mm 0.00 in/hr0.0 mm/hr 0.00 in0.0 mm
09:21 PM 60.4°F15.8°C 5.4°F-14.8°C 11% 2.5 mph W4.0 kmh W 3.4 mph5.5 kmh 29.98 in1015.2 mb 0.00 in0.0 mm 0.00 in/hr0.0 mm/hr 0.00 in0.0 mm
09:32 PM 61.1°F16.2°C 5.9°F-14.5°C 11% 3.0 mph W4.8 kmh W 4.0 mph6.4 kmh 29.98 in1015.2 mb 0.00 in0.0 mm 0.00 in/hr0.0 mm/hr 0.00 in0.0 mm
09:42 PM 60.9°F16.1°C 5.8°F-14.6°C 11% 3.3 mph W5.3 kmh W 4.4 mph7.1 kmh 29.98 in1015.2 mb 0.00 in0.0 mm 0.00 in/hr0.0 mm/hr 0.00 in0.0 mm
09:53 PM 61.3°F16.3°C 6.1°F-14.4°C 11% 4.7 mph SW7.6 kmh SW 29.0 mph46.7 kmh 29.99 in1015.6 mb 0.00 in0.0 mm 0.00 in/hr0.0 mm/hr 0.00 in0.0 mm
10:03 PM 61.3°F16.3°C 6.1°F-14.4°C 11% 1.9 mph WSW3.1 kmh WSW 6.6 mph10.6 kmh 29.99 in1015.6 mb 0.00 in0.0 mm 0.00 in/hr0.0 mm/hr 0.00 in0.0 mm
10:14 PM 60.7°F15.9°C 9.4°F-12.6°C 13% 0.8 mph W1.3 kmh W 2.6 mph4.2 kmh 29.98 in1015.2 mb 0.00 in0.0 mm 0.00 in/hr0.0 mm/hr 0.00 in0.0 mm
10:24 PM 60.4°F15.8°C 10.9°F-11.7°C 14% 0.9 mph WNW1.4 kmh WNW 2.6 mph4.2 kmh 29.98 in1015.2 mb 0.00 in0.0 mm 0.00 in/hr0.0 mm/hr 0.00 in0.0 mm
10:35 PM 60.2°F15.7°C 10.7°F-11.8°C 14% 1.2 mph NW1.9 kmh NW 8.4 mph13.5 kmh 29.99 in1015.6 mb 0.00 in0.0 mm 0.00 in/hr0.0 mm/hr 0.00 in0.0 mm
10:45 PM 59.8°F15.4°C 13.4°F-10.3°C 16% 2.1 mph W3.4 kmh W 4.0 mph6.4 kmh 29.99 in1015.6 mb 0.00 in0.0 mm 0.00 in/hr0.0 mm/hr 0.00 in0.0 mm
10:56 PM 59.5°F15.3°C 14.6°F-9.7°C 17% 1.2 mph WSW1.9 kmh WSW 1.6 mph2.6 kmh 29.99 in1015.6 mb 0.00 in0.0 mm 0.00 in/hr0.0 mm/hr 0.00 in0.0 mm
11:06 PM 59.1°F15.1°C 14.3°F-9.8°C 17% 4.4 mph WNW7.1 kmh WNW 5.8 mph9.3 kmh 29.99 in1015.6 mb 0.00 in0.0 mm 0.00 in/hr0.0 mm/hr 0.00 in0.0 mm
11:17 PM 58.6°F14.8°C 15.2°F-9.3°C 18% Calm Calm 1.2 mph1.9 kmh 30.00 in1015.9 mb 0.00 in0.0 mm 0.00 in/hr0.0 mm/hr 0.00 in0.0 mm
11:27 PM 57.7°F14.3°C 15.6°F-9.1°C 19% 0.9 mph SW1.4 kmh SW 1.2 mph1.9 kmh 30.00 in1015.9 mb 0.00 in0.0 mm 0.00 in/hr0.0 mm/hr 0.00 in0.0 mm
11:38 PM 57.9°F14.4°C 15.8°F-9.0°C 19% 6.6 mph SSW10.6 kmh SSW 8.8 mph14.2 kmh 30.00 in1015.9 mb 0.00 in0.0 mm 0.00 in/hr0.0 mm/hr 0.00 in0.0 mm
11:48 PM 56.4°F13.6°C 14.6°F-9.7°C 19% Calm Calm 8.8 mph14.2 kmh 30.00 in1015.9 mb 0.00 in0.0 mm 0.00 in/hr0.0 mm/hr 0.00 in0.0 mm
11:59 PM 55.3°F12.9°C 14.8°F-9.6°C 20% Calm Calm -- 30.00 in1015.9 mb 0.00 in0.0 mm 0.00 in/hr0.0 mm/hr 0.00 in0.0 mm